Terminal Aerodrome Forecast
Issued by NWS

Home | Current Version | Previous Version | Text Only | Print | Product List | Glossary On
Versions: 1 2 3 4 5 6 7 8 9 10 11 12 13 14
000
FTUS43 KICT 250520
TAFSLN
TAF
KSLN 250520Z 2506/2606 14007KT P6SM SKC
     FM251300 16012KT P6SM FEW250
     FM251600 17017G25KT P6SM SCT250
     FM260100 15010KT P6SM BKN250=

USA.gov is the U.S. government's official web portal to all federal, state and local government web resources and services.